createdAt,value
2019-04-28T00:02:17.399Z,13.95
2019-04-28T00:04:46.751Z,10.63
2019-04-28T00:07:16.113Z,13.45
2019-04-28T00:09:45.468Z,12.60
2019-04-28T00:12:14.837Z,14.20
2019-04-28T00:14:44.398Z,15.15
2019-04-28T00:17:13.804Z,13.78
2019-04-28T00:19:43.230Z,16.00
2019-04-28T00:22:23.322Z,14.28
2019-04-28T00:25:03.239Z,14.40
2019-04-28T00:27:32.668Z,24.32
2019-04-28T00:30:02.265Z,14.13
2019-04-28T00:32:32.646Z,19.12
2019-04-28T00:35:02.474Z,15.20
2019-04-28T00:37:32.957Z,12.82
2019-04-28T00:40:02.389Z,15.25
2019-04-28T00:42:31.764Z,15.23
2019-04-28T00:45:01.881Z,13.00
2019-04-28T00:47:31.324Z,13.15
2019-04-28T00:50:02.133Z,14.38
2019-04-28T00:52:32.089Z,15.70
2019-04-28T00:55:01.600Z,14.10
2019-04-28T00:57:31.145Z,10.43
2019-04-28T01:00:02.426Z,17.42
2019-04-28T01:02:35.875Z,15.10
2019-04-28T01:05:07.626Z,16.05
2019-04-28T01:07:36.967Z,13.58
2019-04-28T01:10:07.837Z,15.53
2019-04-28T01:12:37.160Z,14.10
2019-04-28T01:15:10.246Z,16.05
2019-04-28T01:17:56.553Z,16.80
2019-04-28T01:20:26.253Z,15.10
2019-04-28T01:22:55.606Z,15.15
2019-04-28T01:25:25.011Z,12.65
2019-04-28T01:27:55.335Z,14.03
2019-04-28T01:30:43.939Z,14.85
2019-04-28T01:33:29.996Z,15.98
2019-04-28T01:36:00.487Z,13.93
2019-04-28T01:38:30.298Z,14.93
2019-04-28T01:41:01.522Z,13.83
2019-04-28T01:43:32.459Z,15.50
2019-04-28T01:46:01.785Z,14.28
2019-04-28T01:48:31.488Z,14.70
2019-04-28T01:51:01.058Z,15.13
2019-04-28T01:53:30.933Z,12.33
2019-04-28T01:56:00.475Z,16.00
2019-04-28T01:58:29.849Z,18.75
2019-04-28T02:00:59.682Z,12.88
2019-04-28T02:03:30.758Z,14.23
2019-04-28T02:06:00.404Z,13.55
2019-04-28T02:08:30.320Z,14.55
2019-04-28T02:11:00.188Z,18.65
2019-04-28T02:13:30.019Z,14.43
2019-04-28T02:16:00.016Z,17.07
2019-04-28T02:18:30.070Z,12.15
2019-04-28T02:21:01.239Z,15.40
2019-04-28T02:23:32.238Z,14.63
2019-04-28T02:26:01.573Z,16.77
2019-04-28T02:28:30.966Z,13.32
2019-04-28T02:31:02.318Z,14.28
2019-04-28T02:33:31.514Z,20.70
2019-04-28T02:36:01.592Z,17.27
2019-04-28T02:38:34.070Z,13.50
2019-04-28T02:41:02.047Z,18.98
2019-04-28T02:43:31.376Z,13.88
2019-04-28T02:46:00.873Z,17.80
2019-04-28T02:48:30.969Z,16.93
2019-04-28T02:51:02.230Z,16.00
2019-04-28T02:53:33.737Z,14.58
2019-04-28T02:56:03.363Z,25.92
2019-04-28T02:58:32.723Z,16.85
2019-04-28T03:01:11.111Z,18.73
2019-04-28T03:03:33.183Z,19.10
2019-04-28T03:06:02.501Z,14.55
2019-04-28T03:08:32.367Z,12.88
2019-04-28T03:11:01.717Z,14.68
2019-04-28T03:13:31.423Z,12.65
2019-04-28T03:16:01.717Z,13.78
2019-04-28T03:18:31.906Z,13.32
2019-04-28T03:21:04.251Z,14.43
2019-04-28T03:23:32.780Z,13.22
2019-04-28T03:26:03.784Z,13.53
2019-04-28T03:31:55.358Z,11.93
2019-04-28T03:33:58.014Z,17.73
2019-04-28T03:36:27.431Z,15.03
2019-04-28T03:38:56.844Z,18.82
2019-04-28T03:41:26.179Z,15.93
2019-04-28T03:43:55.542Z,12.58
2019-04-28T03:46:26.529Z,11.05
2019-04-28T03:48:55.948Z,15.18
2019-04-28T03:51:25.314Z,14.23
2019-04-28T03:53:54.747Z,21.35
2019-04-28T03:56:24.077Z,19.57
2019-04-28T03:58:53.433Z,15.88
2019-04-28T04:01:22.789Z,21.07
2019-04-28T04:03:52.158Z,26.17
2019-04-28T04:06:22.647Z,30.92
2019-04-28T04:08:52.306Z,21.82
2019-04-28T04:11:23.309Z,20.85
2019-04-28T04:13:54.445Z,16.90
2019-04-28T04:16:34.759Z,16.67
2019-04-28T04:19:05.737Z,14.68
2019-04-28T04:21:35.085Z,14.53
2019-04-28T04:24:04.532Z,15.18
2019-04-28T04:26:33.951Z,14.95
2019-04-28T04:29:03.369Z,12.85
2019-04-28T04:31:32.827Z,13.30
2019-04-28T04:34:03.460Z,15.13
2019-04-28T04:36:33.015Z,14.30
2019-04-28T04:39:02.368Z,14.70
2019-04-28T04:41:31.826Z,11.70
2019-04-28T04:44:01.458Z,13.30
2019-04-28T04:46:31.479Z,10.65
2019-04-28T04:49:01.172Z,11.25
2019-04-28T04:51:30.941Z,17.30
2019-04-28T04:54:01.291Z,15.75
2019-04-28T04:56:30.978Z,11.95
2019-04-28T04:59:02.747Z,10.70
2019-04-28T05:01:33.090Z,13.48
2019-04-28T05:07:07.461Z,10.15
2019-04-28T05:09:36.895Z,10.95
2019-04-28T05:12:06.353Z,11.93
2019-04-28T05:14:35.850Z,16.77
2019-04-28T05:17:05.348Z,12.85
2019-04-28T05:19:34.691Z,9.98
2019-04-28T05:22:04.551Z,16.85
2019-04-28T05:24:35.537Z,16.50
2019-04-28T05:27:05.678Z,15.18
2019-04-28T05:29:35.051Z,14.93
2019-04-28T05:32:04.430Z,11.95
2019-04-28T05:34:33.843Z,13.35
2019-04-28T05:37:03.266Z,9.28
2019-04-28T05:39:32.659Z,13.03
2019-04-28T05:42:02.104Z,9.95
2019-04-28T05:44:32.055Z,11.63
2019-04-28T05:47:01.884Z,7.87
2019-04-28T05:49:42.053Z,10.43
2019-04-28T05:52:31.223Z,8.20
2019-04-28T05:55:02.219Z,8.50
2019-04-28T05:57:36.421Z,8.43
2019-04-28T06:00:10.746Z,6.65
2019-04-28T06:02:55.505Z,8.35
2019-04-28T06:05:12.817Z,8.25
2019-04-28T06:07:56.054Z,8.55
2019-04-28T06:10:25.466Z,6.47
2019-04-28T06:12:54.831Z,6.40
2019-04-28T06:15:24.270Z,6.92
2019-04-28T06:17:53.827Z,9.45
2019-04-28T06:20:23.280Z,7.90
2019-04-28T06:22:52.657Z,8.30
2019-04-28T06:25:22.135Z,7.92
2019-04-28T06:27:51.736Z,8.33
2019-04-28T06:30:21.119Z,7.47
2019-04-28T06:32:50.672Z,9.60
2019-04-28T06:35:20.103Z,10.35
2019-04-28T06:37:49.654Z,11.90
2019-04-28T06:40:19.234Z,8.08
2019-04-28T06:42:48.789Z,9.70
2019-04-28T06:45:18.389Z,7.30
2019-04-28T06:47:48.040Z,4.87
2019-04-28T06:50:17.400Z,6.17
2019-04-28T06:52:46.869Z,6.58
2019-04-28T06:55:16.402Z,4.65
2019-04-28T06:57:45.757Z,8.00
2019-04-28T07:00:15.854Z,8.68
2019-04-28T07:02:47.530Z,4.92
2019-04-28T07:05:19.821Z,6.30
2019-04-28T07:07:48.622Z,5.87
2019-04-28T07:10:21.165Z,6.58
2019-04-28T07:12:52.108Z,6.92
2019-04-28T07:15:23.280Z,6.05
2019-04-28T07:17:56.817Z,5.20
2019-04-28T07:20:36.886Z,6.28
2019-04-28T07:23:09.082Z,8.00
2019-04-28T07:25:41.282Z,6.62
2019-04-28T07:28:16.563Z,5.42
2019-04-28T07:30:47.660Z,4.50
2019-04-28T07:33:17.468Z,3.67
2019-04-28T07:35:48.323Z,5.75
2019-04-28T07:38:33.472Z,6.30
2019-04-28T07:41:08.700Z,4.33
2019-04-28T07:43:39.792Z,6.28
2019-04-28T07:46:13.944Z,9.45
2019-04-28T07:48:43.744Z,4.08
2019-04-28T07:51:22.935Z,8.03
2019-04-28T07:53:57.877Z,4.95
2019-04-28T07:56:28.689Z,11.75
2019-04-28T07:59:02.491Z,4.47
2019-04-28T08:01:41.300Z,6.50
2019-04-28T08:04:10.637Z,5.17
2019-04-28T08:06:42.948Z,6.00
2019-04-28T08:09:13.650Z,3.87
2019-04-28T08:11:45.774Z,3.37
2019-04-28T08:14:15.314Z,5.87
2019-04-28T08:16:47.724Z,6.53
2019-04-28T08:19:17.068Z,2.83
2019-04-28T08:21:52.386Z,4.72
2019-04-28T08:24:24.803Z,2.80
2019-04-28T08:26:55.998Z,3.90
2019-04-28T08:29:25.610Z,2.80
2019-04-28T08:32:02.988Z,8.78
2019-04-28T08:34:37.634Z,3.27
2019-04-28T08:37:09.454Z,3.10
2019-04-28T08:39:44.954Z,5.73
2019-04-28T08:42:21.680Z,4.30
2019-04-28T08:44:53.560Z,5.53
2019-04-28T08:47:28.307Z,3.63
2019-04-28T08:49:58.976Z,5.70
2019-04-28T08:52:36.204Z,4.63
2019-04-28T08:55:17.669Z,3.30
2019-04-28T08:57:53.739Z,4.63
2019-04-28T09:00:38.487Z,4.47
2019-04-28T09:03:04.055Z,3.37
2019-04-28T09:05:33.989Z,7.53
2019-04-28T09:08:07.282Z,4.40
2019-04-28T09:10:42.008Z,5.57
2019-04-28T09:13:12.916Z,6.20
2019-04-28T09:15:47.491Z,6.03
2019-04-28T09:18:17.822Z,4.83
2019-04-28T09:20:58.942Z,8.13
2019-04-28T09:23:31.206Z,7.03
2019-04-28T09:26:02.139Z,6.43
2019-04-28T09:28:32.882Z,5.50
2019-04-28T09:31:14.851Z,5.07
2019-04-28T09:33:59.226Z,2.27
2019-04-28T09:36:31.454Z,6.30
2019-04-28T09:42:18.143Z,6.73
2019-04-28T09:44:51.299Z,4.87
2019-04-28T09:47:38.079Z,3.47
2019-04-28T09:52:51.265Z,4.67
2019-04-28T09:55:35.125Z,2.83
2019-04-28T09:58:10.090Z,2.20
2019-04-28T10:03:37.736Z,3.40
2019-04-28T10:06:40.499Z,3.87
2019-04-28T10:08:51.916Z,3.63
2019-04-28T10:11:30.773Z,3.77
2019-04-28T10:14:03.447Z,4.23
2019-04-28T10:16:45.396Z,4.03
2019-04-28T10:19:23.535Z,4.33
2019-04-28T10:21:57.536Z,3.10
2019-04-28T10:24:36.310Z,3.20
2019-04-28T10:27:11.806Z,6.70
2019-04-28T10:29:47.585Z,5.60
2019-04-28T10:32:21.640Z,6.00
2019-04-28T10:34:55.413Z,6.93
2019-04-28T10:37:37.743Z,6.80
2019-04-28T10:40:11.542Z,3.43
2019-04-28T10:43:01.641Z,6.67
2019-04-28T10:45:36.027Z,5.53
2019-04-28T10:48:08.325Z,2.73
2019-04-28T10:50:40.312Z,2.03
2019-04-28T10:53:16.000Z,3.63
2019-04-28T10:55:53.942Z,4.33
2019-04-28T10:58:25.302Z,4.37
2019-04-28T11:00:57.789Z,3.93
2019-04-28T11:03:32.192Z,4.80
2019-04-28T11:06:03.560Z,4.13
2019-04-28T11:08:40.576Z,8.13
2019-04-28T11:11:23.230Z,4.07
2019-04-28T11:13:58.214Z,4.90
2019-04-28T11:16:32.124Z,4.20
2019-04-28T11:19:04.500Z,6.27
2019-04-28T11:21:38.854Z,4.87
2019-04-28T11:24:15.347Z,4.97
2019-04-28T11:26:50.416Z,6.40
2019-04-28T11:29:22.681Z,5.30
2019-04-28T11:31:57.680Z,5.50
2019-04-28T11:34:35.915Z,15.00
2019-04-28T11:37:17.800Z,4.40
2019-04-28T11:39:57.364Z,4.27
2019-04-28T11:42:28.311Z,5.80
2019-04-28T11:45:14.961Z,7.23
2019-04-28T11:47:50.730Z,3.43
2019-04-28T11:50:24.533Z,1.97
2019-04-28T11:55:51.070Z,6.03
2019-04-28T11:58:32.757Z,4.70
2019-04-28T12:01:13.346Z,3.00
2019-04-28T12:03:50.632Z,7.17
2019-04-28T12:06:25.174Z,6.37
2019-04-28T12:09:17.226Z,3.70
2019-04-28T12:12:04.237Z,2.70
2019-04-28T12:14:53.009Z,3.70
2019-04-28T12:17:38.991Z,4.70
2019-04-28T12:20:22.637Z,4.00
2019-04-28T12:23:11.270Z,4.17
2019-04-28T12:25:43.434Z,6.23
2019-04-28T12:28:22.327Z,3.53
2019-04-28T12:30:58.865Z,1.93
2019-04-28T12:33:44.755Z,5.43
2019-04-28T12:36:43.199Z,2.50
2019-04-28T12:38:55.657Z,5.33
2019-04-28T12:44:04.265Z,4.90
2019-04-28T12:46:38.504Z,3.57
2019-04-28T12:49:22.757Z,4.47
2019-04-28T12:57:32.233Z,5.63
2019-04-28T13:03:07.465Z,4.50
2019-04-28T13:05:44.273Z,5.73
2019-04-28T13:08:19.168Z,5.57
2019-04-28T13:10:49.030Z,4.30
2019-04-28T13:13:21.348Z,4.80
2019-04-28T13:15:57.648Z,4.30
2019-04-28T13:18:33.817Z,3.70
2019-04-28T13:21:52.227Z,2.77
2019-04-28T13:24:00.193Z,4.23
2019-04-28T13:26:28.067Z,6.40
2019-04-28T13:29:00.739Z,4.10
2019-04-28T13:31:34.440Z,3.93
2019-04-28T13:34:09.016Z,5.97
2019-04-28T13:36:45.705Z,6.07
2019-04-28T13:39:19.391Z,4.90
2019-04-28T13:44:54.166Z,5.73
2019-04-28T13:47:44.264Z,5.20
2019-04-28T13:50:15.101Z,4.93
2019-04-28T13:52:46.082Z,12.03
2019-04-28T13:55:25.762Z,2.53
2019-04-28T13:58:00.294Z,4.57
2019-04-28T14:00:39.887Z,3.00
2019-04-28T14:03:24.012Z,4.97
2019-04-28T14:06:05.143Z,5.70
2019-04-28T14:08:36.574Z,2.17
2019-04-28T14:11:07.166Z,5.93
2019-04-28T14:13:39.915Z,3.97
2019-04-28T14:16:12.137Z,16.70
2019-04-28T14:21:38.664Z,5.67
2019-04-28T14:27:10.617Z,1.87
2019-04-28T14:32:32.256Z,2.23
2019-04-28T14:35:04.773Z,3.57
2019-04-28T14:40:27.440Z,3.13
2019-04-28T14:43:17.122Z,3.27
2019-04-28T14:45:56.041Z,2.57
2019-04-28T14:48:31.091Z,2.27
2019-04-28T14:51:10.793Z,3.70
2019-04-28T14:53:56.056Z,3.27
2019-04-28T14:56:38.836Z,3.47
2019-04-28T15:02:05.713Z,5.23
2019-04-28T15:04:49.362Z,3.07
2019-04-28T15:07:45.449Z,1.60
2019-04-28T15:10:26.928Z,4.50
2019-04-28T15:13:01.939Z,6.20
2019-04-28T15:15:34.236Z,3.60
2019-04-28T15:18:09.844Z,2.83
2019-04-28T15:20:38.533Z,3.70
2019-04-28T15:23:11.929Z,4.43
2019-04-28T15:25:46.712Z,7.03
2019-04-28T15:28:25.333Z,3.73
2019-04-28T15:31:06.579Z,3.50
2019-04-28T15:33:39.438Z,3.83
2019-04-28T15:36:12.927Z,2.97
2019-04-28T15:38:48.411Z,3.07
2019-04-28T15:41:24.049Z,6.67
2019-04-28T15:43:57.460Z,7.07
2019-04-28T15:46:28.667Z,4.60
2019-04-28T15:49:00.763Z,2.67
2019-04-28T15:51:34.489Z,5.35
2019-04-28T15:54:04.311Z,5.60
2019-04-28T15:56:39.294Z,3.87
2019-04-28T15:59:15.751Z,4.23
2019-04-28T16:01:46.385Z,4.80
2019-04-28T16:04:30.875Z,3.43
2019-04-28T16:07:02.198Z,6.87
2019-04-28T16:09:36.134Z,8.58
2019-04-28T16:12:07.103Z,4.37
2019-04-28T16:14:39.278Z,2.80
2019-04-28T16:17:15.416Z,2.57
2019-04-28T16:19:48.657Z,3.60
2019-04-28T16:22:18.200Z,2.83
2019-04-28T16:24:50.090Z,4.13
2019-04-28T16:27:19.723Z,6.08
2019-04-28T16:29:53.299Z,5.35
2019-04-28T16:32:22.552Z,2.90
2019-04-28T16:34:52.330Z,4.35
2019-04-28T16:37:21.478Z,4.03
2019-04-28T16:39:51.121Z,3.42
2019-04-28T16:42:26.281Z,2.12
2019-04-28T16:44:58.029Z,4.03
2019-04-28T16:47:28.801Z,3.90
2019-04-28T16:49:58.232Z,5.65
2019-04-28T16:52:28.707Z,5.10
2019-04-28T16:55:15.814Z,27.25
2019-04-28T16:57:51.028Z,4.10
2019-04-28T17:00:34.791Z,2.83
2019-04-28T17:03:09.284Z,3.92
2019-04-28T17:05:43.774Z,4.58
2019-04-28T17:08:14.240Z,5.20
2019-04-28T17:10:49.223Z,3.67
2019-04-28T17:13:22.004Z,8.25
2019-04-28T17:15:51.538Z,7.00
2019-04-28T17:18:22.579Z,9.15
2019-04-28T17:20:55.178Z,5.72
2019-04-28T17:23:24.661Z,5.47
2019-04-28T17:25:54.288Z,4.40
2019-04-28T17:28:28.681Z,6.37
2019-04-28T17:30:57.727Z,3.00
2019-04-28T17:33:29.458Z,5.62
2019-04-28T17:35:58.682Z,4.92
2019-04-28T17:38:29.389Z,4.90
2019-04-28T17:41:00.181Z,8.03
2019-04-28T17:43:29.664Z,5.20
2019-04-28T17:45:59.285Z,3.62
2019-04-28T17:48:30.538Z,4.53
2019-04-28T17:51:03.049Z,4.45
2019-04-28T17:53:32.462Z,15.25
2019-04-28T17:56:01.932Z,15.43
2019-04-28T17:58:31.436Z,14.60
2019-04-28T18:01:02.434Z,13.50
2019-04-28T18:03:33.636Z,9.68
2019-04-28T18:06:17.543Z,6.10
2019-04-28T18:08:45.953Z,4.10
2019-04-28T18:11:17.272Z,9.33
2019-04-28T18:13:50.650Z,6.70
2019-04-28T18:16:37.839Z,13.35
2019-04-28T18:19:18.299Z,9.98
2019-04-28T18:21:47.877Z,6.72
2019-04-28T18:24:18.743Z,4.37
2019-04-28T18:26:48.219Z,7.50
2019-04-28T18:29:17.766Z,3.70
2019-04-28T18:31:54.412Z,5.25
2019-04-28T18:34:35.690Z,12.37
2019-04-28T18:37:14.614Z,7.20
2019-04-28T18:40:02.246Z,9.15
2019-04-28T18:42:33.240Z,4.67
2019-04-28T18:45:02.758Z,4.45
2019-04-28T18:47:32.100Z,8.95
2019-04-28T18:50:01.578Z,9.30
2019-04-28T18:52:31.054Z,6.17
2019-04-28T18:55:00.486Z,10.15
2019-04-28T18:57:30.070Z,7.25
2019-04-28T18:59:59.480Z,9.18
2019-04-28T19:02:36.492Z,7.33
2019-04-28T19:05:10.317Z,6.30
2019-04-28T19:07:49.148Z,7.70
2019-04-28T19:10:23.175Z,7.10
2019-04-28T19:13:00.180Z,7.33
2019-04-28T19:15:47.564Z,8.48
2019-04-28T19:18:30.743Z,4.72
2019-04-28T19:21:00.329Z,7.72
2019-04-28T19:23:29.781Z,5.35
2019-04-28T19:25:59.256Z,7.90
2019-04-28T19:28:28.709Z,6.60
2019-04-28T19:30:58.057Z,6.78
2019-04-28T19:33:27.467Z,9.58
2019-04-28T19:35:56.930Z,6.53
2019-04-28T19:38:26.379Z,8.08
2019-04-28T19:40:55.852Z,9.30
2019-04-28T19:43:25.453Z,6.92
2019-04-28T19:45:56.480Z,7.55
2019-04-28T19:48:25.903Z,5.20
2019-04-28T19:50:56.013Z,7.25
2019-04-28T19:53:25.582Z,5.37
2019-04-28T19:55:59.277Z,8.83
2019-04-28T19:58:30.298Z,6.83
2019-04-28T20:01:04.243Z,5.67
2019-04-28T20:03:33.689Z,5.12
2019-04-28T20:06:03.064Z,5.58
2019-04-28T20:08:32.422Z,6.50
2019-04-28T20:11:01.801Z,7.20
2019-04-28T20:13:31.587Z,6.90
2019-04-28T20:16:01.297Z,3.67
2019-04-28T20:18:30.762Z,7.08
2019-04-28T20:21:00.205Z,8.10
2019-04-28T20:23:29.627Z,7.12
2019-04-28T20:25:59.204Z,6.45
2019-04-28T20:28:28.563Z,6.08
2019-04-28T20:30:57.998Z,6.33
2019-04-28T20:33:27.480Z,5.92
2019-04-28T20:35:58.463Z,5.12
2019-04-28T20:38:29.593Z,4.78
2019-04-28T20:41:03.545Z,3.95
2019-04-28T20:43:32.921Z,5.15
2019-04-28T20:46:02.275Z,6.87
2019-04-28T20:48:31.675Z,7.05
2019-04-28T20:51:01.086Z,7.95
2019-04-28T20:53:30.522Z,8.48
2019-04-28T20:55:59.919Z,9.53
2019-04-28T20:58:29.263Z,7.75
2019-04-28T21:00:58.740Z,6.45
2019-04-28T21:03:28.127Z,6.25
2019-04-28T21:05:57.502Z,4.97
2019-04-28T21:08:26.854Z,6.37
2019-04-28T21:10:56.316Z,5.33
2019-04-28T21:13:25.713Z,7.87
2019-04-28T21:15:55.114Z,6.37
2019-04-28T21:18:24.540Z,7.90
2019-04-28T21:20:53.951Z,6.00
2019-04-28T21:23:23.409Z,6.47
2019-04-28T21:25:52.903Z,5.67
2019-04-28T21:28:22.250Z,9.00
2019-04-28T21:30:51.723Z,6.03
2019-04-28T21:33:21.124Z,6.53
2019-04-28T21:35:50.475Z,7.33
2019-04-28T21:38:19.844Z,5.33
2019-04-28T21:40:49.253Z,6.50
2019-04-28T21:43:23.431Z,6.30
2019-04-28T21:46:00.304Z,4.75
2019-04-28T21:48:34.496Z,6.53
2019-04-28T21:51:03.923Z,8.48
2019-04-28T21:56:02.310Z,7.42
2019-04-28T21:58:33.264Z,6.55
2019-04-28T22:01:03.283Z,6.33
2019-04-28T22:03:32.639Z,8.10
2019-04-28T22:06:02.079Z,5.62
2019-04-28T22:08:31.517Z,8.70
2019-04-28T22:11:01.013Z,5.60
2019-04-28T22:13:30.345Z,4.62
2019-04-28T22:15:59.728Z,4.47
2019-04-28T22:18:29.406Z,8.20
2019-04-28T22:20:58.796Z,10.30
2019-04-28T22:23:38.887Z,5.95
2019-04-28T22:26:09.332Z,10.03
2019-04-28T22:28:38.796Z,5.72
2019-04-28T22:31:08.274Z,5.35
2019-04-28T22:33:37.643Z,5.25
2019-04-28T22:36:07.074Z,4.97
2019-04-28T22:38:36.426Z,6.90
2019-04-28T22:41:05.783Z,5.60
2019-04-28T22:43:35.235Z,5.70
2019-04-28T22:46:04.574Z,5.97
2019-04-28T22:48:33.998Z,6.50
2019-04-28T22:51:03.361Z,4.85
2019-04-28T22:53:34.339Z,7.03
2019-04-28T22:56:11.358Z,6.42
2019-04-28T22:58:48.118Z,8.63
2019-04-28T23:01:28.248Z,4.92
2019-04-28T23:04:01.931Z,6.12
2019-04-28T23:06:31.301Z,4.58
2019-04-28T23:09:00.709Z,4.53
2019-04-28T23:11:30.163Z,5.08
2019-04-28T23:13:59.513Z,4.25
2019-04-28T23:16:28.967Z,5.80
2019-04-28T23:18:59.240Z,4.62
2019-04-28T23:21:30.250Z,4.47
2019-04-28T23:23:59.584Z,6.58
2019-04-28T23:26:29.003Z,5.60
2019-04-28T23:28:58.560Z,6.95
2019-04-28T23:31:28.003Z,6.60
2019-04-28T23:33:57.342Z,5.55
2019-04-28T23:36:26.737Z,6.25
2019-04-28T23:38:56.078Z,7.00
2019-04-28T23:41:33.180Z,6.62
2019-04-28T23:44:02.603Z,6.17
2019-04-28T23:46:49.755Z,5.87
2019-04-28T23:49:19.159Z,6.20
2019-04-28T23:51:50.142Z,6.67
2019-04-28T23:54:19.510Z,7.67
2019-04-28T23:56:48.895Z,7.28
2019-04-28T23:59:18.315Z,6.33
